Auburn, Missouri
Current Conditions -  °F | °C
As of 5:54 PM on Sunday 25 Jan 2015 (Local Time) from KSET Reporting Station
Light Snow Light Snow  
Wind Chill: 24°   Ceiling: 1200
Heat Index: 35°   Visibility: 5mi
Dew Point: 33°   Wind: 21mph
Humidity: 92%   Direction: 350°N
Pressure: 29.86"   Gusts: 28mph
Location:  39.1646°N, 90.8436°W
Report Text: KSET 252354Z AUTO 35018G24KT 5SM -SN BR OVC012 02/01 A2986 RMK AO2 PK WND 01026/2310 UPB32E37SNB37 SLP115 P0000 60008 T00170006 10072 20017 53062
Loading
Personal Weather Stations






























Interactive Weather Map New forecast layout! Learn more

10-Day Weather Forecast

Advertisements
Track Severe Weather on mobile